Time;durP1;ratioP1;P1;durP2;ratioP2;P2;SDS_P1;SDS_P2;PMS_P1;PMS_P2;Temp;Humidity;BMP_temperature;BMP_pressure;BME280_temperature;BME280_humidity;BME280_pressure;Samples;Min_cycle;Max_cycle;Signal;HPM_P1;HPM_P2
2022/03/25 00:02:21;;;;;;;9.35;6.30;;;18.70;64.90;;;;;;7936747;28;20191;-52
2022/03/25 00:06:07;;;;;;;9.75;6.10;;;18.70;65.00;;;;;;7937077;28;20172;-53
2022/03/25 00:09:52;;;;;;;9.27;6.15;;;18.80;65.10;;;;;;7936741;28;20265;-55
2022/03/25 00:13:38;;;;;;;8.48;5.85;;;18.80;64.90;;;;;;7936713;28;20195;-52
2022/03/25 00:17:24;;;;;;;10.25;5.93;;;19.00;65.00;;;;;;7936736;28;20755;-53
2022/03/25 00:21:10;;;;;;;9.45;6.32;;;19.10;64.60;;;;;;7936567;28;20210;-53
2022/03/25 00:24:55;;;;;;;8.82;6.60;;;19.30;64.30;;;;;;7936483;28;20215;-50
2022/03/25 00:28:40;;;;;;;9.50;6.13;;;19.40;63.90;;;;;;7936413;28;20267;-51
2022/03/25 00:32:26;;;;;;;9.63;6.55;;;19.60;63.60;;;;;;7936048;28;20212;-52
2022/03/25 00:36:11;;;;;;;9.10;6.50;;;19.80;63.50;;;;;;7936190;28;20178;-51
2022/03/25 00:39:57;;;;;;;14.63;6.45;;;19.90;63.00;;;;;;7935865;28;20184;-51
2022/03/25 00:43:44;;;;;;;11.90;7.07;;;20.00;62.70;;;;;;7935884;28;20219;-53
2022/03/25 00:47:30;;;;;;;13.40;7.50;;;20.10;62.50;;;;;;7936173;27;20259;-51
2022/03/25 00:51:16;;;;;;;11.35;6.43;;;20.10;62.50;;;;;;7935380;28;20198;-51
2022/03/25 00:55:03;;;;;;;14.18;7.07;;;20.10;62.50;;;;;;7935579;28;20232;-51
2022/03/25 00:58:49;;;;;;;12.00;7.35;;;20.10;62.60;;;;;;7935407;28;20176;-52
2022/03/25 01:02:35;;;;;;;10.80;7.38;;;20.10;62.70;;;;;;7934605;28;20238;-53
2022/03/25 01:06:21;;;;;;;14.93;7.60;;;20.00;62.80;;;;;;7935530;28;20554;-52
2022/03/25 01:10:07;;;;;;;15.07;7.95;;;20.00;62.80;;;;;;7935111;28;20176;-51
2022/03/25 01:13:52;;;;;;;14.52;8.32;;;20.00;62.90;;;;;;7935040;27;20188;-55
2022/03/25 01:17:38;;;;;;;12.82;7.85;;;19.90;63.00;;;;;;7935227;28;20176;-52
2022/03/25 01:21:23;;;;;;;13.23;8.07;;;19.90;63.00;;;;;;7934591;28;20562;-51
2022/03/25 01:25:09;;;;;;;12.93;8.60;;;20.00;63.10;;;;;;7934679;28;20196;-53
2022/03/25 01:28:54;;;;;;;12.35;7.97;;;20.00;62.80;;;;;;7934638;28;20657;-53
2022/03/25 01:32:40;;;;;;;13.05;8.93;;;20.10;62.80;;;;;;7934216;28;20245;-53
2022/03/25 01:36:25;;;;;;;13.73;8.95;;;20.20;62.70;;;;;;7934324;28;20184;-52
2022/03/25 01:40:11;;;;;;;13.15;8.82;;;20.20;62.40;;;;;;7934024;28;20168;-52
2022/03/25 01:43:59;;;;;;;11.45;8.98;;;20.40;62.30;;;;;;7934014;28;20708;-53
2022/03/25 01:47:44;;;;;;;11.13;7.05;;;20.40;62.00;;;;;;7917398;28;20189;-52
2022/03/25 01:51:32;;;;;;;10.40;7.38;;;20.60;62.80;;;;;;7916139;28;20188;-53
2022/03/25 01:55:21;;;;;;;9.68;7.20;;;20.70;62.40;;;;;;7918352;28;20221;-53
2022/03/25 01:59:08;;;;;;;11.38;6.68;;;20.90;62.30;;;;;;7917484;28;20268;-52
2022/03/25 02:02:53;;;;;;;10.85;7.95;;;21.00;62.10;;;;;;7915481;28;20209;-52
2022/03/25 02:06:39;;;;;;;10.35;7.32;;;21.20;61.90;;;;;;7915848;28;20173;-52
2022/03/25 02:10:24;;;;;;;10.27;6.82;;;21.30;61.90;;;;;;7917159;28;20741;-53
2022/03/25 02:14:11;;;;;;;11.43;7.05;;;21.30;61.90;;;;;;7916589;28;20223;-51
2022/03/25 02:17:57;;;;;;;9.55;6.70;;;21.40;61.90;;;;;;7915332;28;20212;-50
2022/03/25 02:21:42;;;;;;;9.30;7.40;;;21.30;62.00;;;;;;7916988;28;20207;-52
2022/03/25 02:25:29;;;;;;;9.70;7.45;;;21.30;61.90;;;;;;7916557;28;20276;-52
2022/03/25 02:29:16;;;;;;;9.05;6.90;;;21.30;62.20;;;;;;7915117;28;20195;-53
2022/03/25 02:33:02;;;;;;;9.48;6.75;;;21.30;62.30;;;;;;7915369;28;20275;-50
2022/03/25 02:36:48;;;;;;;9.95;6.70;;;21.20;62.40;;;;;;7916225;28;20527;-51
2022/03/25 02:40:34;;;;;;;10.80;7.20;;;21.10;62.30;;;;;;7916619;28;20251;-52
2022/03/25 02:44:19;;;;;;;11.95;8.10;;;21.10;62.50;;;;;;7929768;28;20287;-52
2022/03/25 02:48:06;;;;;;;10.43;7.90;;;21.00;62.40;;;;;;7932604;28;20171;-53
2022/03/25 02:51:51;;;;;;;8.30;6.70;;;21.00;62.50;;;;;;7932186;28;20562;-52
2022/03/25 02:55:37;;;;;;;10.95;7.28;;;21.00;62.60;;;;;;7932385;28;20214;-52
2022/03/25 02:59:22;;;;;;;8.88;7.10;;;20.90;62.70;;;;;;7932368;28;20225;-51
2022/03/25 03:03:08;;;;;;;8.65;7.13;;;20.90;62.70;;;;;;7932607;28;20696;-51
2022/03/25 03:06:54;;;;;;;10.02;7.25;;;20.80;62.70;;;;;;7932554;28;20264;-50
2022/03/25 03:10:40;;;;;;;9.20;7.03;;;20.80;62.80;;;;;;7932078;28;20176;-51
2022/03/25 03:14:25;;;;;;;9.00;7.35;;;20.70;62.90;;;;;;7932101;28;20567;-50
2022/03/25 03:18:11;;;;;;;8.55;7.15;;;20.70;63.00;;;;;;7932158;28;20168;-50
2022/03/25 03:21:57;;;;;;;9.80;6.60;;;20.60;63.10;;;;;;7931605;28;20219;-53
2022/03/25 03:25:43;;;;;;;11.75;8.50;;;20.60;63.10;;;;;;7931998;28;20615;-52
2022/03/25 03:29:29;;;;;;;9.90;7.40;;;20.60;63.10;;;;;;7937890;28;20172;-52
2022/03/25 03:33:14;;;;;;;9.52;7.18;;;20.50;63.20;;;;;;7938036;28;20252;-51
2022/03/25 03:37:00;;;;;;;9.50;7.60;;;20.40;63.20;;;;;;7937962;28;20184;-53
2022/03/25 03:40:45;;;;;;;13.13;9.52;;;20.40;63.20;;;;;;7937534;28;20176;-53
2022/03/25 03:44:31;;;;;;;13.00;9.00;;;20.30;62.40;;;;;;7937650;28;20203;-54
2022/03/25 03:48:16;;;;;;;11.88;8.73;;;20.20;62.50;;;;;;7937816;28;20187;-53
2022/03/25 03:52:04;;;;;;;12.40;9.75;;;20.10;62.60;;;;;;7937119;28;20207;-53
2022/03/25 03:55:50;;;;;;;11.93;9.35;;;20.00;62.60;;;;;;7937358;28;20204;-53
2022/03/25 03:59:36;;;;;;;11.73;8.98;;;20.00;62.80;;;;;;7937046;28;20185;-52
2022/03/25 04:03:21;;;;;;;12.35;8.52;;;20.00;62.80;;;;;;7937494;28;20211;-54
2022/03/25 04:07:07;;;;;;;13.55;9.35;;;20.00;62.80;;;;;;7937121;28;20634;-50
2022/03/25 04:10:52;;;;;;;12.95;9.25;;;19.90;62.90;;;;;;7936784;28;20180;-51
2022/03/25 04:14:38;;;;;;;14.07;9.25;;;19.80;62.90;;;;;;7936809;28;20203;-53
2022/03/25 04:18:23;;;;;;;15.63;9.73;;;19.80;62.90;;;;;;7936731;28;20184;-50
2022/03/25 04:22:09;;;;;;;13.82;9.82;;;19.80;63.00;;;;;;7926701;28;20226;-51
2022/03/25 04:25:55;;;;;;;13.75;9.68;;;19.80;63.00;;;;;;7917666;28;20262;-53
2022/03/25 04:29:40;;;;;;;13.68;9.32;;;19.70;63.00;;;;;;7904312;28;20188;-52
2022/03/25 04:33:26;;;;;;;11.27;8.82;;;19.70;63.10;;;;;;7903955;28;20204;-50
2022/03/25 04:37:11;;;;;;;14.27;9.52;;;19.70;63.10;;;;;;7923219;28;20192;-50
2022/03/25 04:40:57;;;;;;;12.77;8.82;;;19.70;63.00;;;;;;7934700;28;20898;-50
2022/03/25 04:44:42;;;;;;;13.40;9.20;;;19.60;63.00;;;;;;7904068;28;20204;-54
2022/03/25 04:48:28;;;;;;;14.48;9.23;;;19.70;63.00;;;;;;7920898;28;20184;-52
2022/03/25 04:52:13;;;;;;;11.00;8.40;;;19.70;63.00;;;;;;7923202;28;20310;-50
2022/03/25 04:55:59;;;;;;;13.50;9.30;;;19.70;63.00;;;;;;7904092;28;20549;-50
2022/03/25 04:59:44;;;;;;;12.07;9.50;;;19.70;62.90;;;;;;7904190;28;20216;-50
2022/03/25 05:03:30;;;;;;;12.40;9.07;;;19.70;62.90;;;;;;7902935;28;20208;-50
2022/03/25 05:07:16;;;;;;;13.07;9.43;;;19.70;63.00;;;;;;7928799;28;20192;-50
2022/03/25 05:11:02;;;;;;;14.68;9.63;;;19.70;62.50;;;;;;7934510;28;20187;-50
2022/03/25 05:14:47;;;;;;;21.20;9.13;;;19.80;62.80;;;;;;7934033;28;20235;-50
2022/03/25 05:18:33;;;;;;;14.10;9.80;;;19.80;62.50;;;;;;7917849;28;20207;-50
2022/03/25 05:22:18;;;;;;;20.83;9.68;;;19.80;62.40;;;;;;7922907;28;20196;-50
2022/03/25 05:26:04;;;;;;;12.43;8.75;;;19.80;62.40;;;;;;7918300;28;20251;-51
2022/03/25 05:29:49;;;;;;;19.58;9.27;;;19.80;62.60;;;;;;7917791;28;20192;-49
2022/03/25 05:33:35;;;;;;;21.83;9.00;;;19.90;62.70;;;;;;7929563;27;20586;-52
2022/03/25 05:37:22;;;;;;;18.40;8.32;;;19.90;63.00;;;;;;7932614;27;20252;-51
2022/03/25 05:41:07;;;;;;;23.58;9.35;;;20.00;62.80;;;;;;7933655;28;20222;-51
2022/03/25 05:44:53;;;;;;;18.55;9.05;;;20.00;62.60;;;;;;7933487;28;20220;-52
2022/03/25 05:48:38;;;;;;;24.75;9.52;;;20.10;62.60;;;;;;7932943;28;20176;-51
2022/03/25 05:52:24;;;;;;;22.45;10.13;;;20.10;62.50;;;;;;7909923;28;20279;-50
2022/03/25 05:56:11;;;;;;;17.27;9.70;;;20.00;62.50;;;;;;7901100;28;20264;-52
2022/03/25 05:59:58;;;;;;;16.35;8.95;;;20.10;62.50;;;;;;7901501;28;20234;-53
2022/03/25 06:03:44;;;;;;;22.52;8.98;;;20.10;62.50;;;;;;7901040;28;20200;-51
2022/03/25 06:07:40;;;;;;;17.73;9.13;;;20.10;62.80;;;;;;7901147;28;20264;-53
2022/03/25 06:11:26;;;;;;;20.67;8.68;;;20.20;62.70;;;;;;7900743;28;20532;-51
2022/03/25 06:15:12;;;;;;;17.98;9.20;;;20.20;62.50;;;;;;7900299;28;20279;-55
2022/03/25 06:18:57;;;;;;;20.73;9.38;;;20.20;62.80;;;;;;7900737;28;20181;-54
2022/03/25 06:22:43;;;;;;;20.13;9.00;;;20.20;62.70;;;;;;7929566;28;20608;-50
2022/03/25 06:26:28;;;;;;;19.85;9.10;;;20.20;62.70;;;;;;7931868;28;20180;-50
2022/03/25 06:30:14;;;;;;;13.48;9.30;;;20.30;62.60;;;;;;7932041;28;20168;-55
2022/03/25 06:33:59;;;;;;;21.70;9.65;;;20.20;62.50;;;;;;7929047;28;20212;-52
2022/03/25 06:37:45;;;;;;;18.35;9.48;;;20.20;62.50;;;;;;7901495;28;20698;-49
2022/03/25 06:41:30;;;;;;;19.67;9.18;;;20.20;62.60;;;;;;7900942;28;20196;-49
2022/03/25 06:45:18;;;;;;;14.88;9.13;;;20.30;62.70;;;;;;7906348;28;20265;-52
2022/03/25 06:49:04;;;;;;;18.50;9.70;;;20.30;62.50;;;;;;7907650;28;20206;-50
2022/03/25 06:52:51;;;;;;;18.13;8.93;;;20.30;62.70;;;;;;7900444;27;20205;-53
2022/03/25 06:56:37;;;;;;;14.70;8.95;;;20.30;62.90;;;;;;7899770;28;20184;-53
2022/03/25 07:00:24;;;;;;;19.17;9.68;;;20.30;62.90;;;;;;7899190;28;20257;-53
2022/03/25 07:04:10;;;;;;;19.15;10.65;;;20.30;63.00;;;;;;7899114;28;20203;-50
2022/03/25 07:07:55;;;;;;;15.38;8.93;;;20.30;63.00;;;;;;7899820;28;20181;-52
2022/03/25 07:11:42;;;;;;;15.27;8.93;;;20.30;63.00;;;;;;7899392;28;20724;-52
2022/03/25 07:15:27;;;;;;;18.30;10.13;;;20.30;64.20;;;;;;7899142;28;20242;-52
2022/03/25 07:19:13;;;;;;;18.98;9.70;;;20.40;63.30;;;;;;7900461;28;20222;-51
2022/03/25 07:22:58;;;;;;;16.50;9.73;;;20.30;63.20;;;;;;7930712;28;20717;-52
2022/03/25 07:26:44;;;;;;;19.00;10.00;;;20.40;63.20;;;;;;7930719;28;20168;-51
2022/03/25 07:30:30;;;;;;;15.15;9.27;;;20.30;63.10;;;;;;7930719;28;20245;-52
2022/03/25 07:34:15;;;;;;;15.55;10.07;;;20.40;63.20;;;;;;7925839;28;20280;-51
2022/03/25 07:38:01;;;;;;;13.80;9.07;;;20.40;63.20;;;;;;7899036;28;20191;-52
2022/03/25 07:41:46;;;;;;;19.05;9.68;;;20.40;63.30;;;;;;7899050;28;20304;-50
2022/03/25 07:45:32;;;;;;;20.42;9.68;;;20.40;63.70;;;;;;7898722;28;20216;-50
2022/03/25 07:49:17;;;;;;;18.38;9.68;;;20.40;63.50;;;;;;7900971;28;20187;-52
2022/03/25 07:53:03;;;;;;;17.52;10.10;;;20.40;63.40;;;;;;7930114;28;20200;-50
2022/03/25 07:56:48;;;;;;;16.05;10.00;;;20.30;63.20;;;;;;7930164;28;20195;-52
2022/03/25 08:00:35;;;;;;;15.32;9.98;;;20.40;63.10;;;;;;7930022;28;20172;-52
2022/03/25 08:04:23;;;;;;;16.95;10.05;;;20.50;63.10;;;;;;7926503;28;20204;-52
2022/03/25 08:08:09;;;;;;;23.33;9.82;;;20.50;63.40;;;;;;7898702;28;20165;-52
2022/03/25 08:11:55;;;;;;;14.75;10.15;;;20.40;63.50;;;;;;7898716;28;20179;-50
2022/03/25 08:15:40;;;;;;;16.75;8.98;;;20.50;63.20;;;;;;7907076;28;20290;-52
2022/03/25 08:19:26;;;;;;;17.50;10.13;;;20.50;63.40;;;;;;7931497;28;20577;-53
2022/03/25 08:31:25;;;;;;;11.68;8.32;;;20.60;63.60;;;;;;7912158;28;20590;-52
2022/03/25 08:35:11;;;;;;;19.98;9.80;;;20.50;63.60;;;;;;7913795;28;20222;-53
2022/03/25 08:38:56;;;;;;;13.05;9.63;;;20.50;63.30;;;;;;7935658;28;20179;-51
2022/03/25 08:42:42;;;;;;;27.52;9.20;;;20.50;63.30;;;;;;7934785;28;20245;-52
2022/03/25 08:46:28;;;;;;;19.73;8.60;;;20.50;63.30;;;;;;7934603;28;20187;-53
2022/03/25 08:50:16;;;;;;;14.90;8.60;;;20.50;63.50;;;;;;7923674;28;20196;-49
2022/03/25 08:54:01;;;;;;;14.88;9.20;;;20.50;63.70;;;;;;7902848;28;20635;-52
2022/03/25 08:57:48;;;;;;;14.18;9.60;;;20.50;63.50;;;;;;7902851;28;20180;-53
2022/03/25 09:01:34;;;;;;;16.30;9.18;;;20.50;63.50;;;;;;7903061;28;20213;-53
2022/03/25 09:05:20;;;;;;;18.08;9.45;;;20.50;63.50;;;;;;7914206;28;20199;-50
2022/03/25 09:09:06;;;;;;;25.63;9.25;;;20.50;63.40;;;;;;7934716;28;20204;-58
2022/03/25 09:12:51;;;;;;;16.25;8.45;;;20.50;63.50;;;;;;7933653;28;20199;-51
2022/03/25 09:16:37;;;;;;;17.20;8.85;;;20.50;64.00;;;;;;7917403;28;20188;-52
2022/03/25 09:20:23;;;;;;;21.02;9.02;;;20.60;63.80;;;;;;7915612;28;20176;-52
2022/03/25 09:24:09;;;;;;;17.25;9.05;;;20.60;63.40;;;;;;7932850;28;20349;-52
2022/03/25 09:27:55;;;;;;;20.13;8.52;;;20.60;63.00;;;;;;7933615;28;20634;-52
2022/03/25 09:31:42;;;;;;;19.65;9.23;;;20.60;63.40;;;;;;7933712;28;20541;-51
2022/03/25 09:35:28;;;;;;;21.08;8.80;;;20.60;63.60;;;;;;7915615;28;20216;-52
2022/03/25 09:39:14;;;;;;;16.35;8.70;;;20.60;63.70;;;;;;7901726;28;20676;-52
2022/03/25 09:42:59;;;;;;;18.40;8.98;;;20.60;63.10;;;;;;7901274;28;20655;-52
2022/03/25 09:46:45;;;;;;;18.63;8.90;;;20.60;63.10;;;;;;7900919;28;20188;-52
2022/03/25 09:50:33;;;;;;;24.45;8.75;;;20.50;63.10;;;;;;7916432;28;20219;-51
2022/03/25 09:54:19;;;;;;;15.18;8.90;;;20.60;63.60;;;;;;7932806;28;20753;-53
2022/03/25 09:58:05;;;;;;;15.00;8.40;;;20.60;63.30;;;;;;7933190;28;20172;-52
2022/03/25 10:01:50;;;;;;;17.58;8.57;;;20.60;63.00;;;;;;7933078;28;20920;-50
2022/03/25 10:05:53;;;;;;;15.40;8.25;;;20.60;63.00;;;;;;7915807;28;20192;-52
2022/03/25 10:09:38;;;;;;;14.13;7.50;;;20.60;63.70;;;;;;7901538;28;20226;-53
2022/03/25 10:13:24;;;;;;;20.02;7.90;;;20.60;64.00;;;;;;7901559;28;20196;-51
2022/03/25 10:17:09;;;;;;;12.85;7.93;;;20.60;63.80;;;;;;7900411;28;20184;-56
2022/03/25 10:20:54;;;;;;;13.73;7.60;;;20.60;63.40;;;;;;7912964;28;20603;-49
2022/03/25 10:24:48;;;;;;;25.58;8.43;;;20.60;63.70;;;;;;7904292;28;20239;-53
2022/03/25 10:28:40;;;;;;;27.50;8.35;;;20.60;63.40;;;;;;7900345;28;20164;-52
2022/03/25 10:32:26;;;;;;;21.38;7.65;;;20.70;63.70;;;;;;7900029;28;20177;-52
2022/03/25 10:36:14;;;;;;;31.35;8.07;;;20.70;63.70;;;;;;7900729;28;20199;-53
2022/03/25 10:40:00;;;;;;;15.10;7.03;;;20.70;63.70;;;;;;7900189;28;20180;-53
2022/03/25 10:43:59;;;;;;;18.20;7.82;;;20.70;64.00;;;;;;7900005;28;20693;-51
2022/03/25 10:47:45;;;;;;;14.00;6.95;;;20.70;63.70;;;;;;7899670;28;20587;-52
2022/03/25 10:51:31;;;;;;;18.70;7.75;;;20.60;63.60;;;;;;7924101;28;20192;-50
2022/03/25 10:55:19;;;;;;;15.68;7.57;;;20.60;63.60;;;;;;7928020;28;20203;-52
2022/03/25 10:59:04;;;;;;;22.50;7.28;;;20.60;63.90;;;;;;7931040;28;20188;-52
2022/03/25 11:02:51;;;;;;;18.52;6.80;;;20.60;64.00;;;;;;7930576;28;20727;-52
2022/03/25 11:06:39;;;;;;;11.50;6.43;;;20.70;64.70;;;;;;7903384;28;20192;-50
2022/03/25 11:10:25;;;;;;;17.92;7.18;;;20.70;64.50;;;;;;7898916;28;20849;-53
2022/03/25 11:14:12;;;;;;;24.55;7.43;;;20.70;64.50;;;;;;7898301;28;20201;-53
2022/03/25 11:17:58;;;;;;;18.75;6.95;;;20.70;64.80;;;;;;7898256;28;20184;-51
2022/03/25 11:21:46;;;;;;;23.52;7.40;;;20.70;64.60;;;;;;7925122;28;20734;-52
2022/03/25 11:25:37;;;;;;;20.02;6.97;;;20.70;64.20;;;;;;7929314;28;20219;-50
2022/03/25 11:29:27;;;;;;;18.88;7.00;;;20.70;64.00;;;;;;7930139;28;20172;-52
2022/03/25 11:33:12;;;;;;;19.23;6.90;;;20.60;63.70;;;;;;7930711;28;20231;-52
2022/03/25 11:37:17;;;;;;;15.10;6.63;;;20.70;63.40;;;;;;7900814;28;20192;-52
2022/03/25 11:41:23;;;;;;;14.45;6.53;;;20.70;63.80;;;;;;7898996;28;20646;-52
2022/03/25 11:45:25;;;;;;;14.30;6.68;;;20.70;63.70;;;;;;7898136;28;20234;-52
2022/03/25 11:49:19;;;;;;;24.33;7.13;;;20.70;63.70;;;;;;7908100;28;20683;-52
2022/03/25 11:53:11;;;;;;;20.23;6.88;;;20.70;63.40;;;;;;7936363;28;20197;-53
2022/03/25 11:56:57;;;;;;;19.63;7.07;;;20.70;63.50;;;;;;7932631;28;20194;-53
2022/03/25 12:00:45;;;;;;;17.38;7.43;;;20.60;63.20;;;;;;7907359;28;20771;-52
2022/03/25 12:04:37;;;;;;;17.17;7.05;;;20.60;62.80;;;;;;7901621;28;20242;-53
2022/03/25 12:08:35;;;;;;;19.27;6.70;;;20.70;62.70;;;;;;7904354;28;20207;-52
2022/03/25 12:12:54;;;;;;;15.77;6.30;;;20.60;63.20;;;;;;7904042;28;20184;-52
2022/03/25 12:16:45;;;;;;;10.38;6.65;;;20.60;62.70;;;;;;7903607;28;20185;-53
2022/03/25 12:20:40;;;;;;;22.48;6.90;;;20.60;62.30;;;;;;7903959;28;20234;-50
2022/03/25 12:24:27;;;;;;;16.25;6.82;;;20.60;63.10;;;;;;7903265;28;20216;-52
2022/03/25 12:28:12;;;;;;;13.57;7.05;;;20.60;62.70;;;;;;7903395;28;20169;-54
2022/03/25 12:32:02;;;;;;;16.75;6.30;;;20.60;62.70;;;;;;7903220;28;20264;-53
2022/03/25 12:35:48;;;;;;;12.05;6.88;;;20.60;62.80;;;;;;7923112;28;20231;-52
2022/03/25 12:39:34;;;;;;;15.40;6.85;;;20.70;63.00;;;;;;7914195;28;20612;-53
2022/03/25 12:43:29;;;;;;;15.95;8.02;;;20.60;63.20;;;;;;7903164;28;20212;-52
2022/03/25 12:47:16;;;;;;;21.33;7.32;;;20.60;63.10;;;;;;7903140;28;20659;-54
2022/03/25 12:51:03;;;;;;;15.63;7.20;;;20.70;64.00;;;;;;7902839;28;20196;-52
2022/03/25 12:54:49;;;;;;;11.30;6.85;;;20.60;63.40;;;;;;7899721;28;20275;-50
2022/03/25 12:58:39;;;;;;;13.82;6.90;;;20.70;63.60;;;;;;7901999;28;20180;-51
2022/03/25 13:02:35;;;;;;;25.42;7.25;;;20.70;63.50;;;;;;7902559;28;20230;-52
2022/03/25 13:06:21;;;;;;;13.23;6.47;;;20.70;64.00;;;;;;7927677;28;20786;-52
2022/03/25 13:10:07;;;;;;;15.15;6.25;;;20.70;63.70;;;;;;7932083;28;20532;-53
2022/03/25 13:13:53;;;;;;;13.77;6.05;;;20.70;63.10;;;;;;7933439;28;20689;-51
2022/03/25 13:17:44;;;;;;;14.07;6.93;;;20.70;64.00;;;;;;7933524;28;20219;-52
2022/03/25 13:21:29;;;;;;;24.63;7.57;;;20.70;63.00;;;;;;7906316;28;20730;-51
2022/03/25 13:25:15;;;;;;;27.27;7.28;;;20.70;63.10;;;;;;7901523;28;20537;-53
2022/03/25 13:29:01;;;;;;;20.25;6.57;;;20.80;65.30;;;;;;7901283;28;20227;-52
2022/03/25 13:32:56;;;;;;;15.02;6.57;;;20.80;64.40;;;;;;7901156;28;20222;-51
2022/03/25 13:36:41;;;;;;;19.80;7.07;;;20.80;63.70;;;;;;7929946;28;20186;-51
2022/03/25 13:40:29;;;;;;;23.48;7.00;;;20.80;63.30;;;;;;7932962;28;20187;-51
2022/03/25 13:44:15;;;;;;;10.00;6.30;;;20.80;63.10;;;;;;7932959;28;20232;-53
2022/03/25 13:48:05;;;;;;;25.70;6.50;;;20.70;63.10;;;;;;7932590;28;20789;-53
2022/03/25 13:52:04;;;;;;;28.33;6.53;;;20.70;64.00;;;;;;7931921;28;20208;-52
2022/03/25 13:55:50;;;;;;;25.23;7.10;;;20.80;64.40;;;;;;7933326;28;20727;-54
2022/03/25 13:59:41;;;;;;;19.52;7.45;;;20.80;64.40;;;;;;7933343;28;20527;-51
2022/03/25 14:03:31;;;;;;;14.10;6.75;;;20.80;63.60;;;;;;7933365;28;20684;-52
2022/03/25 14:07:18;;;;;;;24.90;7.00;;;20.70;63.10;;;;;;7933500;28;20176;-51
2022/03/25 14:11:04;;;;;;;19.38;6.55;;;20.80;63.70;;;;;;7931850;28;20180;-52
2022/03/25 14:14:58;;;;;;;26.30;6.72;;;20.80;63.80;;;;;;7933347;28;20203;-52
2022/03/25 14:18:52;;;;;;;25.95;7.10;;;20.70;63.70;;;;;;7932865;28;20250;-51
2022/03/25 14:22:41;;;;;;;15.95;7.20;;;20.70;63.10;;;;;;7928093;28;20214;-50
2022/03/25 14:26:27;;;;;;;16.25;6.57;;;20.70;62.70;;;;;;7901330;28;20515;-53
2022/03/25 14:30:12;;;;;;;17.70;6.60;;;20.70;62.40;;;;;;7920611;28;20176;-50
2022/03/25 14:33:58;;;;;;;16.92;7.10;;;20.70;63.10;;;;;;7932729;28;20207;-51
2022/03/25 14:37:43;;;;;;;21.52;6.80;;;20.70;63.00;;;;;;7932699;28;20514;-54
2022/03/25 14:41:29;;;;;;;13.68;6.90;;;20.70;62.80;;;;;;7932082;28;20581;-53
2022/03/25 14:45:15;;;;;;;22.75;7.70;;;20.70;63.10;;;;;;7932430;28;20252;-54
2022/03/25 14:49:00;;;;;;;21.95;7.32;;;20.70;63.10;;;;;;7932069;28;20219;-54
2022/03/25 14:52:46;;;;;;;24.02;6.95;;;20.70;63.40;;;;;;7958496;27;20202;-53
2022/03/25 14:56:34;;;;;;;15.10;6.63;;;20.70;64.50;;;;;;7964277;27;20236;-53
2022/03/25 15:00:20;;;;;;;13.00;7.00;;;20.70;63.50;;;;;;7963424;27;20704;-52
2022/03/25 15:04:06;;;;;;;16.60;6.60;;;20.70;63.70;;;;;;7963736;27;20240;-52
2022/03/25 15:07:53;;;;;;;12.63;7.22;;;20.70;63.50;;;;;;7963548;27;20174;-51
2022/03/25 15:11:38;;;;;;;12.75;7.10;;;20.60;63.10;;;;;;7963126;27;20593;-52
2022/03/25 15:15:25;;;;;;;13.70;6.68;;;20.60;63.10;;;;;;7963806;27;20191;-51
2022/03/25 15:19:11;;;;;;;12.32;6.15;;;20.60;63.10;;;;;;7963366;27;20176;-53
2022/03/25 15:22:56;;;;;;;15.73;6.85;;;20.60;63.30;;;;;;7965926;27;20217;-51
2022/03/25 15:26:42;;;;;;;13.27;6.50;;;20.60;63.40;;;;;;7946249;27;20742;-52
2022/03/25 15:34:34;;;;;;;12.35;6.45;;;20.60;63.80;;;;;;7938036;28;20692;-52
2022/03/25 15:38:20;;;;;;;9.52;6.00;;;20.60;63.30;;;;;;7937779;28;20193;-51
2022/03/25 15:42:05;;;;;;;13.88;7.22;;;20.60;62.90;;;;;;7937168;28;20211;-51
2022/03/25 15:45:51;;;;;;;13.50;6.95;;;20.60;62.80;;;;;;7937330;28;20688;-52
2022/03/25 15:49:36;;;;;;;13.40;7.00;;;20.60;62.90;;;;;;7936872;28;20761;-52
2022/03/25 15:53:25;;;;;;;16.05;6.80;;;20.60;62.50;;;;;;7933930;28;20231;-52
2022/03/25 15:57:11;;;;;;;17.52;7.38;;;20.60;62.50;;;;;;7926812;28;20191;-52
2022/03/25 16:00:57;;;;;;;12.40;6.78;;;20.60;62.80;;;;;;7937119;28;20638;-52
2022/03/25 16:04:43;;;;;;;12.90;6.65;;;20.60;62.80;;;;;;7936975;27;20204;-49
2022/03/25 16:08:28;;;;;;;14.63;6.72;;;20.60;62.80;;;;;;7929476;27;20188;-53
2022/03/25 16:12:13;;;;;;;36.70;6.60;;;20.60;63.10;;;;;;7936277;28;20205;-54
2022/03/25 16:16:03;;;;;;;17.38;5.75;;;20.60;63.40;;;;;;7927917;28;20283;-51
2022/03/25 16:19:48;;;;;;;16.20;6.25;;;20.60;64.00;;;;;;7905083;28;20184;-52
2022/03/25 16:23:34;;;;;;;16.60;5.68;;;20.60;64.00;;;;;;7905040;28;20286;-55
2022/03/25 16:27:21;;;;;;;24.42;6.70;;;20.60;64.30;;;;;;7904962;28;20176;-52
2022/03/25 16:31:06;;;;;;;14.07;6.60;;;20.60;63.70;;;;;;7904704;28;20226;-53
2022/03/25 16:34:53;;;;;;;17.50;6.30;;;20.60;63.60;;;;;;7903388;28;20192;-53
2022/03/25 16:38:38;;;;;;;21.08;6.63;;;20.60;63.70;;;;;;7904610;28;20229;-52
2022/03/25 16:42:24;;;;;;;23.17;6.75;;;20.60;63.70;;;;;;7904120;28;20197;-53
2022/03/25 16:46:09;;;;;;;17.88;6.13;;;20.60;63.70;;;;;;7904444;28;20173;-52
2022/03/25 16:49:55;;;;;;;14.43;6.15;;;20.50;63.70;;;;;;7903817;28;20181;-53
2022/03/25 16:53:40;;;;;;;15.05;6.15;;;20.50;63.70;;;;;;7904349;28;20201;-52
2022/03/25 16:57:26;;;;;;;20.88;6.28;;;20.50;63.80;;;;;;7904101;28;20218;-53
2022/03/25 17:01:11;;;;;;;12.55;6.28;;;20.50;63.60;;;;;;7903816;28;20177;-52
2022/03/25 17:04:57;;;;;;;11.82;6.00;;;20.50;63.60;;;;;;7903781;28;20207;-51
2022/03/25 17:08:43;;;;;;;15.13;6.15;;;20.50;63.70;;;;;;7903690;28;20182;-51
2022/03/25 17:12:28;;;;;;;13.00;6.85;;;20.50;63.70;;;;;;7903473;28;20220;-52
2022/03/25 17:16:14;;;;;;;21.33;5.60;;;20.50;63.70;;;;;;7903406;28;20230;-51
2022/03/25 17:19:59;;;;;;;11.38;6.35;;;20.50;63.70;;;;;;7903180;28;20203;-51
2022/03/25 17:23:45;;;;;;;14.68;6.47;;;20.50;63.70;;;;;;7903008;28;20216;-51
2022/03/25 17:27:31;;;;;;;9.10;6.53;;;20.50;63.70;;;;;;7903055;28;20262;-50
2022/03/25 17:31:16;;;;;;;11.40;6.32;;;20.50;64.50;;;;;;7902989;28;20168;-50
2022/03/25 17:35:03;;;;;;;12.52;6.70;;;20.50;63.70;;;;;;7902836;28;20199;-52
2022/03/25 17:38:49;;;;;;;13.25;6.78;;;20.50;63.70;;;;;;7902658;28;20176;-51
2022/03/25 17:42:35;;;;;;;11.27;6.95;;;20.40;63.50;;;;;;7902306;28;20211;-52
2022/03/25 17:46:20;;;;;;;9.50;6.88;;;20.50;63.60;;;;;;7902596;28;20172;-51
2022/03/25 17:50:06;;;;;;;14.60;7.65;;;20.50;63.70;;;;;;7902053;28;20185;-54
2022/03/25 17:53:52;;;;;;;12.68;7.22;;;20.40;63.50;;;;;;7902779;28;20201;-52
2022/03/25 17:57:38;;;;;;;8.70;6.28;;;20.40;63.50;;;;;;7902289;28;20521;-51
2022/03/25 18:01:24;;;;;;;15.52;6.93;;;20.40;63.50;;;;;;7902078;28;20204;-52
2022/03/25 18:05:11;;;;;;;13.52;6.90;;;20.40;63.50;;;;;;7902502;28;20283;-52
2022/03/25 18:08:58;;;;;;;10.82;6.38;;;20.40;63.50;;;;;;7902054;28;20252;-52
2022/03/25 18:12:43;;;;;;;12.27;7.05;;;20.40;63.70;;;;;;7901688;28;20189;-49
2022/03/25 18:16:29;;;;;;;12.98;7.22;;;20.40;63.50;;;;;;7902033;28;20666;-52
2022/03/25 18:20:15;;;;;;;14.00;7.18;;;20.40;63.50;;;;;;7902208;28;20263;-55
2022/03/25 18:24:03;;;;;;;10.93;6.57;;;20.40;63.40;;;;;;7901713;28;20208;-53
2022/03/25 18:27:49;;;;;;;16.25;6.88;;;20.40;63.40;;;;;;7901502;28;20259;-53
2022/03/25 18:31:34;;;;;;;17.52;7.38;;;20.40;63.40;;;;;;7900995;28;20188;-51
2022/03/25 18:35:20;;;;;;;10.52;6.93;;;20.30;63.40;;;;;;7901070;28;20200;-55
2022/03/25 18:39:06;;;;;;;11.25;7.30;;;20.40;63.50;;;;;;7900918;28;20168;-52
2022/03/25 18:42:52;;;;;;;14.48;7.13;;;20.30;63.40;;;;;;7900966;28;20216;-55
2022/03/25 18:46:38;;;;;;;18.20;7.30;;;20.30;63.40;;;;;;7901008;28;20484;-54
2022/03/25 18:50:25;;;;;;;16.30;7.80;;;20.40;63.50;;;;;;7900555;28;20207;-52
2022/03/25 18:54:11;;;;;;;13.48;7.10;;;20.30;63.50;;;;;;7900620;28;20196;-52
2022/03/25 18:57:56;;;;;;;12.02;6.85;;;20.40;63.60;;;;;;7900067;28;20172;-55
2022/03/25 19:01:42;;;;;;;13.38;6.97;;;20.30;63.40;;;;;;7900562;28;20215;-52
2022/03/25 19:05:27;;;;;;;11.60;6.38;;;20.40;63.60;;;;;;7900639;28;20193;-50
2022/03/25 19:09:13;;;;;;;9.65;6.65;;;20.30;63.50;;;;;;7900457;28;20169;-50
2022/03/25 19:12:58;;;;;;;15.43;6.35;;;20.30;63.50;;;;;;7900692;28;20227;-52
2022/03/25 19:16:44;;;;;;;12.45;7.15;;;20.30;63.50;;;;;;7901179;28;20457;-50
2022/03/25 19:20:29;;;;;;;12.00;6.97;;;20.30;63.50;;;;;;7900647;28;20607;-50
2022/03/25 19:24:15;;;;;;;11.73;7.32;;;20.30;63.60;;;;;;7900017;28;20283;-50
2022/03/25 19:28:01;;;;;;;10.60;6.88;;;20.30;63.60;;;;;;7900334;28;20230;-51
2022/03/25 19:31:46;;;;;;;12.35;7.40;;;20.30;63.60;;;;;;7899985;28;20199;-51
2022/03/25 19:35:34;;;;;;;9.15;6.95;;;20.30;63.60;;;;;;7900166;28;20571;-50
2022/03/25 19:39:19;;;;;;;10.88;6.88;;;20.30;63.70;;;;;;7902094;28;20200;-51